Time;durP1;ratioP1;P1;durP2;ratioP2;P2;SDS_P1;SDS_P2;PMS_P1;PMS_P2;Temp;Humidity;BMP_temperature;BMP_pressure;BME280_temperature;BME280_humidity;BME280_pressure;Samples;Min_cycle;Max_cycle;Signal;HPM_P1;HPM_P2
2022/07/21 00:01:38;;;;;;;5.50;5.00;;;18.20;99.90;17.60;100791;;;;559300;255;24162;-84
2022/07/21 00:04:08;;;;;;;5.53;4.83;;;18.10;99.90;17.50;100791;;;;565137;254;24179;-83
2022/07/21 00:06:37;;;;;;;7.87;5.57;;;18.10;99.90;17.50;100795;;;;556832;255;24190;-83
2022/07/21 00:09:05;;;;;;;8.47;4.97;;;18.10;99.90;17.50;100797;;;;557582;254;24131;-83
2022/07/21 00:11:36;;;;;;;6.07;4.97;;;18.10;99.90;17.50;100798;;;;558012;254;24218;-81
2022/07/21 00:14:03;;;;;;;8.27;5.13;;;18.10;99.90;17.50;100797;;;;557842;254;24122;-83
2022/07/21 00:16:31;;;;;;;6.20;5.20;;;18.10;99.90;17.50;100799;;;;557502;254;24145;-84
2022/07/21 00:18:59;;;;;;;6.27;4.77;;;18.10;99.90;17.40;100800;;;;557084;254;24127;-83
2022/07/21 00:21:31;;;;;;;6.10;5.43;;;18.00;99.90;17.40;100801;;;;557180;254;24107;-83
2022/07/21 00:23:57;;;;;;;7.77;4.80;;;18.00;99.90;17.30;100798;;;;564801;254;24118;-83
2022/07/21 00:26:25;;;;;;;7.80;5.47;;;17.90;99.90;17.30;100807;;;;556389;254;24122;-83
2022/07/21 00:28:53;;;;;;;7.63;5.20;;;17.90;99.90;17.30;100804;;;;556619;254;24142;-83
2022/07/21 00:31:24;;;;;;;6.67;5.27;;;17.80;99.90;17.30;100801;;;;557463;254;24168;-84
2022/07/21 00:33:52;;;;;;;6.77;5.03;;;17.90;99.90;17.20;100799;;;;555740;254;24123;-83
2022/07/21 00:36:20;;;;;;;7.37;5.93;;;17.80;99.90;17.20;100799;;;;555304;254;24118;-83
2022/07/21 00:38:48;;;;;;;10.63;5.87;;;17.80;99.90;17.20;100802;;;;558607;254;24123;-85
2022/07/21 00:41:16;;;;;;;6.20;5.60;;;17.80;99.90;17.20;100802;;;;556098;254;24108;-83
2022/07/21 00:43:46;;;;;;;6.67;5.40;;;17.80;99.90;17.20;100806;;;;564436;253;24122;-81
2022/07/21 00:46:12;;;;;;;5.77;5.27;;;17.80;99.90;17.20;100795;;;;555070;255;24125;-82
2022/07/21 00:48:41;;;;;;;8.00;7.20;;;17.90;99.90;17.30;100793;;;;550280;255;35435;-82
2022/07/21 00:51:09;;;;;;;6.90;5.97;;;17.80;99.90;17.30;100799;;;;554117;255;24150;-81
2022/07/21 00:53:37;;;;;;;6.07;5.30;;;17.90;99.90;17.30;100799;;;;555830;255;24114;-82
2022/07/21 00:56:05;;;;;;;5.97;5.10;;;17.90;99.90;17.40;100798;;;;555590;255;24123;-83
2022/07/21 00:58:33;;;;;;;6.73;5.73;;;18.00;99.90;17.40;100797;;;;553288;255;24115;-83
2022/07/21 01:01:05;;;;;;;8.13;5.80;;;18.00;99.90;17.40;100798;;;;557156;255;24137;-82
2022/07/21 01:03:28;;;;;;;6.97;5.37;;;18.00;99.90;17.40;100806;;;;556193;255;24220;-81
2022/07/21 01:05:56;;;;;;;6.03;5.43;;;18.00;99.90;17.40;100806;;;;556433;255;24132;-80
2022/07/21 01:08:27;;;;;;;5.87;5.20;;;18.00;99.90;17.30;100809;;;;556535;255;24128;-82
2022/07/21 01:10:54;;;;;;;6.53;5.50;;;17.90;99.90;17.30;100811;;;;564136;254;24113;-82
2022/07/21 01:13:22;;;;;;;6.93;6.27;;;17.80;99.90;17.20;100812;;;;564152;254;24121;-82
2022/07/21 01:15:53;;;;;;;7.67;6.57;;;17.80;99.90;17.20;100807;;;;556256;255;24219;-82
2022/07/21 01:18:17;;;;;;;6.60;5.97;;;17.80;99.90;17.20;100806;;;;556951;255;24139;-81
2022/07/21 01:20:45;;;;;;;8.77;5.87;;;17.80;99.90;17.10;100798;;;;572176;249;24077;-85
2022/07/21 01:23:14;;;;;;;9.67;5.97;;;17.70;99.90;17.10;100795;;;;561594;253;24165;-82
2022/07/21 01:25:48;;;;;;;7.20;6.03;;;17.70;99.90;17.10;100796;;;;558648;254;24063;-86
2022/07/21 01:28:19;;;;;;;10.10;6.03;;;17.70;99.90;17.10;100796;;;;569138;250;24069;-86
2022/07/21 01:30:44;;;;;;;7.30;5.90;;;17.70;99.90;17.10;100794;;;;560829;255;24182;-86
2022/07/21 01:33:12;;;;;;;7.07;6.00;;;17.70;99.90;17.10;100793;;;;558190;254;24163;-86
2022/07/21 01:35:41;;;;;;;8.60;6.17;;;17.60;99.90;17.20;100797;;;;557995;254;24143;-84
2022/07/21 01:41:28;;;;;;;6.13;5.53;;;17.70;99.90;17.20;100786;;;;558153;254;24138;-86
2022/07/21 01:43:23;;;;;;;6.57;5.43;;;17.80;99.90;17.40;100780;;;;575665;248;24113;-82
2022/07/21 01:45:51;;;;;;;6.10;5.43;;;18.00;99.90;17.40;100785;;;;575748;238;24107;-81
2022/07/21 01:48:19;;;;;;;6.83;5.37;;;17.90;99.90;17.40;100792;;;;579262;243;25085;-84
2022/07/21 01:50:47;;;;;;;6.60;5.90;;;18.00;99.90;17.40;100789;;;;587949;241;24048;-77
2022/07/21 01:53:15;;;;;;;9.97;6.57;;;18.00;99.90;17.40;100795;;;;587975;241;24063;-82
2022/07/21 01:55:43;;;;;;;7.10;4.93;;;17.90;99.90;17.30;100798;;;;582694;245;24093;-81
2022/07/21 01:58:11;;;;;;;6.00;4.80;;;17.90;99.90;17.30;100794;;;;585799;245;24086;-82
2022/07/21 02:00:42;;;;;;;8.68;6.95;;;17.80;99.90;17.20;100795;;;;580948;245;35487;-82
2022/07/21 02:03:07;;;;;;;7.37;5.63;;;17.80;99.90;17.20;100799;;;;576681;245;24100;-81
2022/07/21 02:05:35;;;;;;;7.33;6.30;;;17.80;99.90;17.20;100794;;;;586376;245;24109;-83
2022/07/21 02:08:04;;;;;;;6.50;5.83;;;17.70;99.90;17.20;100797;;;;586317;245;24093;-77
2022/07/21 02:10:35;;;;;;;5.97;5.33;;;17.70;99.90;17.20;100790;;;;586167;245;24075;-82
2022/07/21 02:13:00;;;;;;;7.00;5.50;;;17.80;99.90;17.20;100784;;;;576924;245;24158;-82
2022/07/21 02:15:28;;;;;;;7.73;6.13;;;17.80;99.90;17.20;100790;;;;586166;245;24122;-82
2022/07/21 02:17:56;;;;;;;6.03;4.90;;;17.80;99.90;17.20;100789;;;;586210;245;24097;-81
2022/07/21 02:20:24;;;;;;;6.83;5.67;;;17.80;99.90;17.20;100784;;;;583474;245;24140;-75
2022/07/21 02:22:55;;;;;;;9.30;5.93;;;17.80;99.90;17.20;100796;;;;577281;245;24116;-80
2022/07/21 02:25:20;;;;;;;7.03;6.33;;;17.80;99.90;17.20;100786;;;;585503;245;25222;-77
2022/07/21 02:27:48;;;;;;;9.90;5.63;;;17.80;99.90;17.20;100792;;;;576756;245;24075;-75
2022/07/21 02:30:16;;;;;;;9.23;6.43;;;17.80;99.90;17.20;100793;;;;585961;245;24123;-83
2022/07/21 02:32:44;;;;;;;9.43;6.37;;;17.80;99.90;17.20;100793;;;;587093;243;24121;-79
2022/07/21 02:35:16;;;;;;;6.77;5.83;;;17.80;99.90;17.20;100788;;;;587028;244;24092;-79
2022/07/21 02:37:41;;;;;;;8.17;6.17;;;17.80;99.90;17.20;100783;;;;577298;245;25184;-82
2022/07/21 02:40:09;;;;;;;6.90;6.00;;;17.80;99.90;17.20;100784;;;;586507;245;24091;-79
2022/07/21 02:42:37;;;;;;;8.07;5.77;;;17.80;99.90;17.20;100787;;;;583568;245;23106;-79
2022/07/21 02:45:05;;;;;;;8.13;5.83;;;17.80;99.90;17.20;100787;;;;586166;245;24166;-78
2022/07/21 02:47:32;;;;;;;9.50;6.60;;;17.80;99.90;17.20;100787;;;;583724;245;24109;-76
2022/07/21 02:50:00;;;;;;;8.93;6.57;;;17.80;99.90;17.20;100791;;;;586036;245;24142;-79
2022/07/21 02:52:28;;;;;;;13.17;7.00;;;17.80;99.90;17.20;100780;;;;586594;245;24091;-76
2022/07/21 02:54:56;;;;;;;8.10;6.17;;;17.80;99.90;17.20;100783;;;;586329;242;24120;-77
2022/07/21 02:57:24;;;;;;;8.63;6.00;;;17.80;99.90;17.20;100776;;;;586860;245;24083;-82
2022/07/21 02:59:53;;;;;;;7.00;5.80;;;17.80;99.90;17.20;100776;;;;587355;245;24106;-82
2022/07/21 03:02:21;;;;;;;8.40;6.63;;;17.80;99.90;17.20;100777;;;;586490;245;24083;-83
2022/07/21 03:04:49;;;;;;;8.07;6.53;;;17.80;99.90;17.30;100769;;;;586220;245;24091;-83
2022/07/21 03:07:17;;;;;;;10.50;6.37;;;17.80;99.90;17.30;100773;;;;586021;245;24113;-82
2022/07/21 03:09:45;;;;;;;8.27;5.83;;;17.90;99.90;17.40;100773;;;;585776;245;24086;-83
2022/07/21 03:12:12;;;;;;;7.87;6.20;;;18.00;99.90;17.50;100778;;;;585945;245;24109;-80
2022/07/21 03:14:40;;;;;;;9.53;6.37;;;18.00;99.90;17.50;100771;;;;585982;245;24093;-79
2022/07/21 03:17:08;;;;;;;8.00;6.43;;;18.10;99.90;17.60;100777;;;;583235;245;24090;-82
2022/07/21 03:19:36;;;;;;;6.83;5.50;;;18.10;99.90;17.60;100773;;;;586042;245;24139;-81
2022/07/21 03:22:04;;;;;;;7.07;6.40;;;18.20;99.90;17.70;100766;;;;586461;245;24087;-82
2022/07/21 03:24:32;;;;;;;11.97;5.93;;;18.20;99.90;17.80;100767;;;;586030;245;24085;-82
2022/07/21 03:27:00;;;;;;;10.00;6.57;;;18.30;99.90;17.90;100769;;;;585911;245;24115;-76
2022/07/21 03:29:28;;;;;;;8.90;6.33;;;18.40;99.90;18.00;100756;;;;576603;245;24098;-80
2022/07/21 03:31:56;;;;;;;8.93;6.50;;;18.60;99.90;18.20;100761;;;;585809;245;24086;-83
2022/07/21 03:34:24;;;;;;;8.17;6.40;;;18.70;99.90;18.30;100765;;;;585856;245;24130;-83
2022/07/21 03:36:52;;;;;;;7.00;6.30;;;18.80;99.90;18.40;100759;;;;585808;245;24090;-80
2022/07/21 03:39:20;;;;;;;8.20;7.35;;;19.00;99.90;18.50;100765;;;;580750;245;35445;-82
2022/07/21 03:41:49;;;;;;;6.63;6.03;;;19.30;99.90;18.80;100773;;;;585946;245;24108;-82
2022/07/21 03:44:18;;;;;;;5.87;5.27;;;19.70;99.90;19.30;100774;;;;587010;243;24201;-82
2022/07/21 03:46:46;;;;;;;9.43;5.40;;;20.20;99.90;19.80;100775;;;;587032;244;24072;-83
2022/07/21 03:49:14;;;;;;;6.83;6.07;;;20.20;99.90;20.30;100767;;;;586534;245;24094;-82
2022/07/21 03:51:42;;;;;;;6.80;5.73;;;20.70;99.90;20.80;100773;;;;586705;245;24100;-83
2022/07/21 03:54:10;;;;;;;8.27;4.80;;;21.20;99.90;21.40;100783;;;;586407;245;24120;-81
2022/07/21 03:56:38;;;;;;;6.30;5.67;;;21.80;99.90;21.80;100773;;;;586151;242;24142;-82
2022/07/21 03:59:06;;;;;;;6.43;5.77;;;22.30;99.90;22.30;100778;;;;586712;245;23093;-82
2022/07/21 04:01:34;;;;;;;6.57;5.10;;;22.80;99.90;22.70;100782;;;;586705;245;24083;-84
2022/07/21 04:04:02;;;;;;;5.83;5.33;;;23.30;99.90;23.20;100783;;;;586595;245;24098;-83
2022/07/21 04:06:30;;;;;;;8.23;5.97;;;24.20;99.90;23.60;100780;;;;586091;245;24073;-83
2022/07/21 04:08:59;;;;;;;10.23;5.87;;;24.70;99.90;24.20;100786;;;;585980;245;24116;-83
2022/07/21 04:11:27;;;;;;;6.00;5.40;;;24.70;99.90;24.70;100780;;;;586094;245;24090;-84
2022/07/21 04:13:55;;;;;;;11.57;6.17;;;25.30;99.90;25.20;100772;;;;577177;245;24072;-83
2022/07/21 04:16:23;;;;;;;7.00;5.13;;;25.80;99.90;25.70;100771;;;;586254;245;23086;-83
2022/07/21 04:18:51;;;;;;;9.03;5.50;;;26.30;99.90;26.10;100771;;;;586043;245;23107;-83
2022/07/21 04:21:19;;;;;;;6.50;6.00;;;26.80;99.90;26.50;100772;;;;577027;245;23107;-83
2022/07/21 04:23:46;;;;;;;6.00;5.40;;;27.20;99.90;27.00;100771;;;;585838;245;24135;-77
2022/07/21 04:26:14;;;;;;;6.07;5.57;;;27.70;99.90;27.50;100768;;;;585638;245;23116;-80
2022/07/21 04:28:43;;;;;;;8.37;6.33;;;28.80;99.90;28.10;100780;;;;585832;245;24142;-83
2022/07/21 04:31:11;;;;;;;9.43;5.97;;;28.70;99.90;28.60;100781;;;;576714;245;23093;-76
2022/07/21 04:33:39;;;;;;;9.97;5.27;;;29.30;99.90;29.00;100777;;;;585915;245;23144;-77
2022/07/21 04:36:11;;;;;;;7.20;5.53;;;29.80;99.90;29.50;100781;;;;585781;245;23172;-76
2022/07/21 04:38:35;;;;;;;9.63;5.45;;;30.30;98.20;30.00;100780;;;;576197;245;23108;-77
2022/07/21 04:41:03;;;;;;;6.93;5.62;;;30.80;96.30;30.50;100788;;;;585861;245;23103;-78
2022/07/21 04:43:31;;;;;;;25.70;5.80;;;31.30;94.00;31.10;100784;;;;585824;245;23164;-85
2022/07/21 04:45:59;;;;;;;18.12;6.28;;;31.90;91.70;31.50;100779;;;;585917;245;23238;-82
2022/07/21 04:48:26;;;;;;;10.60;5.30;;;32.40;90.20;32.10;100787;;;;585766;245;23099;-82
2022/07/21 04:50:58;;;;;;;6.50;5.12;;;32.90;86.60;32.50;100786;;;;586004;245;23199;-86
2022/07/21 04:53:22;;;;;;;10.75;5.60;;;33.40;82.30;33.00;100787;;;;576482;245;23098;-81
2022/07/21 04:55:50;;;;;;;5.18;4.68;;;33.90;79.10;33.50;100779;;;;587026;242;23106;-82
2022/07/21 04:58:18;;;;;;;7.93;7.10;;;34.30;75.40;33.70;100779;;;;587363;244;23109;-85
2022/07/21 05:00:46;;;;;;;7.80;5.70;;;34.60;73.10;33.90;100782;;;;587146;245;23094;-76
2022/07/21 05:03:14;;;;;;;7.53;5.57;;;34.90;71.70;34.40;100780;;;;587017;245;23141;-77
2022/07/21 05:05:42;;;;;;;6.93;5.47;;;35.30;69.10;35.10;100793;;;;586464;245;23100;-78
2022/07/21 05:08:10;;;;;;;9.70;6.10;;;35.90;66.50;35.60;100789;;;;581236;245;35377;-77
2022/07/21 05:10:38;;;;;;;9.35;5.15;;;36.40;64.40;35.70;100789;;;;586481;245;23135;-79
2022/07/21 05:13:06;;;;;;;10.23;4.93;;;36.60;62.90;36.10;100788;;;;586217;245;23163;-76
2022/07/21 05:15:34;;;;;;;6.95;4.82;;;37.50;60.20;36.60;100797;;;;586233;245;23083;-80
2022/07/21 05:18:03;;;;;;;9.77;5.00;;;37.80;58.10;37.00;100795;;;;586153;245;23139;-77
2022/07/21 05:20:31;;;;;;;5.55;5.03;;;37.70;58.00;37.20;100789;;;;577357;245;23085;-76
2022/07/21 05:22:59;;;;;;;6.78;4.90;;;38.10;57.00;37.40;100791;;;;586144;245;24191;-80
2022/07/21 05:25:27;;;;;;;8.10;5.43;;;38.20;56.50;37.90;100789;;;;586100;245;23100;-77
2022/07/21 05:27:55;;;;;;;9.38;4.93;;;38.70;55.70;38.20;100797;;;;586273;245;23098;-82
2022/07/21 05:30:22;;;;;;;6.05;4.80;;;39.10;53.90;38.60;100793;;;;586026;245;23116;-76
2022/07/21 05:32:50;;;;;;;8.82;4.57;;;39.30;53.60;39.00;100792;;;;576646;245;23126;-77
2022/07/21 05:35:19;;;;;;;4.95;4.55;;;40.30;52.10;39.60;100799;;;;585762;245;23140;-76
2022/07/21 05:37:47;;;;;;;4.87;4.47;;;40.20;52.00;40.10;100798;;;;585811;245;23100;-77
2022/07/21 05:40:15;;;;;;;10.27;5.40;;;40.70;50.60;40.30;100796;;;;586047;245;23108;-78
2022/07/21 05:42:43;;;;;;;7.47;4.82;;;41.00;50.50;40.40;100783;;;;585785;245;23092;-78
2022/07/21 05:45:11;;;;;;;5.28;4.78;;;41.20;49.70;40.90;100787;;;;585969;245;23139;-77
2022/07/21 05:47:39;;;;;;;4.87;4.28;;;41.50;49.10;41.30;100789;;;;576855;245;23108;-78
2022/07/21 05:50:07;;;;;;;5.25;3.90;;;41.90;48.80;41.70;100790;;;;576998;245;24097;-76
2022/07/21 05:52:38;;;;;;;11.35;4.20;;;42.30;48.40;42.40;100792;;;;576739;245;23109;-76
2022/07/21 05:55:03;;;;;;;7.28;4.35;;;42.90;47.20;42.90;100796;;;;585245;242;23180;-78
2022/07/21 05:57:31;;;;;;;9.10;4.43;;;43.60;45.30;43.00;100787;;;;577238;245;23125;-79
2022/07/21 06:00:00;;;;;;;7.00;4.97;;;43.70;45.10;43.20;100794;;;;586320;245;23098;-83
2022/07/21 06:02:30;;;;;;;11.90;4.40;;;44.00;45.30;43.50;100786;;;;586334;245;23103;-81
2022/07/21 06:04:57;;;;;;;8.07;4.97;;;44.40;44.30;44.00;100794;;;;585917;242;23123;-81
2022/07/21 06:07:25;;;;;;;5.57;4.32;;;44.40;44.80;44.50;100787;;;;587542;243;23096;-82
2022/07/21 06:09:56;;;;;;;10.98;5.00;;;44.90;44.10;44.90;100790;;;;581899;244;35449;-81
2022/07/21 06:12:21;;;;;;;8.40;4.00;;;45.40;43.60;45.20;100790;;;;577495;245;23256;-83
2022/07/21 06:14:49;;;;;;;9.70;4.85;;;45.70;42.70;45.60;100793;;;;586813;245;23096;-82
2022/07/21 06:17:17;;;;;;;8.43;4.62;;;46.10;42.40;45.90;100785;;;;586396;245;23100;-78
2022/07/21 06:19:45;;;;;;;6.18;3.95;;;46.40;41.80;46.00;100784;;;;586833;245;23107;-83
2022/07/21 06:22:13;;;;;;;14.73;4.55;;;46.60;41.10;46.10;100781;;;;586534;245;24128;-79
2022/07/21 06:24:41;;;;;;;5.05;4.28;;;46.60;40.80;46.10;100779;;;;586337;245;23216;-83
2022/07/21 06:27:09;;;;;;;4.03;3.75;;;46.60;40.30;46.00;100772;;;;586437;245;23089;-80
2022/07/21 06:29:36;;;;;;;7.03;4.70;;;46.70;39.80;46.20;100775;;;;586473;245;23116;-82
2022/07/21 06:32:08;;;;;;;5.40;4.45;;;46.70;39.80;46.40;100779;;;;586753;245;23076;-82
2022/07/21 06:34:32;;;;;;;5.22;4.18;;;46.80;40.00;47.00;100782;;;;576987;245;23133;-85
2022/07/21 06:37:00;;;;;;;6.28;4.10;;;47.20;40.20;47.20;100779;;;;586120;245;23091;-82
2022/07/21 06:39:32;;;;;;;13.25;4.25;;;47.50;38.90;47.20;100779;;;;586118;245;23103;-78
2022/07/21 06:41:57;;;;;;;6.57;4.10;;;47.50;38.90;47.50;100781;;;;576730;245;23109;-77
2022/07/21 06:44:25;;;;;;;8.57;4.40;;;47.80;39.00;48.10;100782;;;;586116;245;23101;-77
2022/07/21 06:46:53;;;;;;;7.53;4.30;;;48.80;38.50;48.50;100787;;;;586265;245;23097;-77
2022/07/21 06:49:25;;;;;;;8.00;4.68;;;49.10;38.70;48.80;100780;;;;585908;245;23121;-77
2022/07/21 06:51:50;;;;;;;7.70;4.28;;;49.10;38.00;49.30;100783;;;;576863;245;23154;-76
2022/07/21 06:54:18;;;;;;;13.27;4.35;;;49.50;37.80;49.90;100777;;;;585760;245;23114;-75
2022/07/21 06:56:47;;;;;;;6.45;4.55;;;50.00;37.40;50.60;100778;;;;585927;242;23114;-77
2022/07/21 06:59:19;;;;;;;10.50;4.37;;;50.70;36.60;51.00;100765;;;;586007;245;23123;-78
2022/07/21 07:01:46;;;;;;;9.70;4.03;;;51.10;36.30;51.30;100774;;;;577067;245;23112;-78
2022/07/21 07:04:14;;;;;;;7.07;4.80;;;51.50;35.70;51.40;100769;;;;586112;245;23097;-78
2022/07/21 07:06:42;;;;;;;4.95;4.45;;;51.60;36.00;51.00;100771;;;;586545;245;23141;-76
2022/07/21 07:09:12;;;;;;;7.62;4.47;;;51.50;35.20;51.10;100772;;;;577433;245;24173;-77
2022/07/21 07:11:40;;;;;;;9.00;4.40;;;51.40;35.30;51.30;100775;;;;583077;245;23125;-77
2022/07/21 07:14:08;;;;;;;5.07;4.37;;;51.50;35.30;51.20;100770;;;;586373;245;23108;-78
2022/07/21 07:16:36;;;;;;;4.40;4.00;;;51.40;35.20;51.20;100770;;;;586520;245;23086;-77
2022/07/21 07:19:05;;;;;;;10.13;4.82;;;51.50;35.30;51.40;100772;;;;587860;243;23095;-78
2022/07/21 07:21:33;;;;;;;7.10;4.10;;;51.90;35.00;51.90;100770;;;;587765;244;23138;-79
2022/07/21 07:24:08;;;;;;;5.10;4.53;;;51.90;35.00;51.90;100768;;;;585548;245;23133;-77
2022/07/21 07:26:35;;;;;;;4.80;4.40;;;52.10;34.40;52.00;100764;;;;578571;245;23112;-79
2022/07/21 07:29:06;;;;;;;5.20;4.75;;;52.20;34.50;52.50;100770;;;;587398;245;23140;-78
2022/07/21 07:31:31;;;;;;;9.95;4.50;;;52.60;34.40;52.60;100771;;;;586898;245;23148;-77
2022/07/21 07:33:59;;;;;;;6.32;4.70;;;52.70;33.70;52.80;100776;;;;587656;245;23085;-80
2022/07/21 07:36:30;;;;;;;9.52;4.60;;;52.90;33.50;53.00;100780;;;;578303;245;23133;-79
2022/07/21 07:39:01;;;;;;;6.87;4.40;;;53.10;34.20;53.30;100788;;;;578395;245;23126;-78
2022/07/21 07:41:25;;;;;;;7.70;4.28;;;53.40;33.80;53.10;100786;;;;577222;245;23109;-77
2022/07/21 07:43:53;;;;;;;7.05;4.37;;;53.30;33.10;53.10;100787;;;;583416;245;23115;-78
2022/07/21 07:46:22;;;;;;;7.03;4.62;;;53.60;33.40;53.50;100785;;;;586306;245;23178;-79
2022/07/21 07:48:50;;;;;;;9.68;4.35;;;53.60;33.40;53.80;100789;;;;586365;245;23123;-79
2022/07/21 07:51:21;;;;;;;7.12;4.00;;;53.80;33.00;53.50;100785;;;;586132;245;23108;-77
2022/07/21 07:53:46;;;;;;;8.23;4.68;;;53.80;32.60;53.40;100784;;;;576744;245;23134;-77
2022/07/21 07:56:15;;;;;;;14.68;4.70;;;53.70;32.70;53.40;100787;;;;585722;242;23131;-78
2022/07/21 07:58:44;;;;;;;6.05;4.60;;;53.60;32.60;53.60;100785;;;;586249;245;23140;-78
2022/07/21 08:01:12;;;;;;;10.15;4.85;;;53.60;32.70;53.80;100789;;;;577742;245;23176;-77
2022/07/21 08:03:40;;;;;;;7.85;4.40;;;53.90;32.70;53.80;100786;;;;577483;245;23117;-79
2022/07/21 08:06:09;;;;;;;4.90;4.57;;;53.90;32.80;54.00;100787;;;;578172;245;23117;-79
2022/07/21 08:08:37;;;;;;;10.15;4.12;;;54.00;32.70;54.50;100778;;;;578666;245;23148;-79
2022/07/21 08:11:05;;;;;;;6.10;4.30;;;54.40;32.30;54.80;100780;;;;578811;245;23167;-80
2022/07/21 08:13:34;;;;;;;5.47;4.70;;;55.00;31.70;54.60;100777;;;;578808;245;23200;-79
2022/07/21 08:16:01;;;;;;;8.50;4.82;;;54.90;31.60;54.70;100783;;;;587800;245;23098;-79
2022/07/21 08:18:29;;;;;;;5.85;4.40;;;55.00;31.50;54.90;100781;;;;583576;245;23088;-78
2022/07/21 08:20:57;;;;;;;4.72;4.07;;;55.00;32.00;55.10;100784;;;;587567;245;23234;-78
2022/07/21 08:23:25;;;;;;;11.55;4.93;;;55.30;31.70;55.20;100782;;;;587844;245;23146;-78
2022/07/21 08:25:57;;;;;;;4.32;3.95;;;55.40;31.70;54.90;100787;;;;587079;245;23129;-77
2022/07/21 08:28:21;;;;;;;5.72;4.60;;;55.40;31.20;55.00;100782;;;;586628;243;23112;-79
2022/07/21 08:30:50;;;;;;;4.90;4.57;;;55.30;31.30;54.80;100777;;;;588489;243;23099;-79
2022/07/21 08:33:21;;;;;;;5.18;4.50;;;55.20;31.30;55.10;100780;;;;585334;245;23132;-81
2022/07/21 08:35:49;;;;;;;4.68;4.30;;;55.30;31.50;55.60;100774;;;;578629;245;23114;-78
2022/07/21 08:38:16;;;;;;;13.35;5.12;;;56.20;31.60;55.90;100779;;;;586479;242;23129;-78
2022/07/21 08:40:48;;;;;;;6.45;4.65;;;56.20;31.50;55.80;100773;;;;587305;245;23132;-77
2022/07/21 08:43:15;;;;;;;7.03;4.75;;;56.20;30.90;55.70;100770;;;;577779;245;23143;-77
2022/07/21 08:45:48;;;;;;;5.85;4.37;;;56.20;30.90;56.00;100762;;;;577882;245;23183;-77
2022/07/21 08:48:17;;;;;;;8.45;5.07;;;56.40;31.10;56.50;100760;;;;577766;245;23206;-77
2022/07/21 08:50:41;;;;;;;4.87;4.22;;;56.80;31.00;56.70;100758;;;;581828;245;23100;-78
2022/07/21 08:53:09;;;;;;;5.18;4.57;;;57.30;30.00;56.60;100762;;;;586613;245;23093;-78
2022/07/21 08:55:41;;;;;;;8.73;4.47;;;57.30;30.30;57.00;100742;;;;586986;242;23119;-78
2022/07/21 08:58:12;;;;;;;5.22;4.80;;;57.50;30.20;56.80;100745;;;;587386;245;23099;-78
2022/07/21 09:00:37;;;;;;;8.48;5.30;;;57.70;29.70;56.50;100731;;;;578083;245;23178;-79
2022/07/21 09:03:17;;;;;;;6.87;4.53;;;57.40;30.10;56.50;100733;;;;584622;245;23123;-78
2022/07/21 09:06:07;;;;;;;5.72;4.80;;;57.40;29.80;56.10;100743;;;;578576;245;23163;-80
2022/07/21 09:08:36;;;;;;;7.15;4.68;;;57.10;29.90;55.80;100748;;;;578342;245;23140;-78
2022/07/21 09:11:27;;;;;;;5.75;4.18;;;56.80;30.20;55.80;100749;;;;578132;245;23177;-77
2022/07/21 09:14:13;;;;;;;7.82;4.93;;;56.70;30.90;56.60;100752;;;;587039;243;23130;-79
2022/07/21 09:16:45;;;;;;;12.50;4.28;;;57.10;30.70;56.40;100751;;;;577777;245;23123;-79
2022/07/21 09:19:24;;;;;;;7.70;4.62;;;57.40;30.00;56.50;100740;;;;577657;245;24242;-78
2022/07/21 09:21:55;;;;;;;6.60;4.87;;;57.30;30.30;57.10;100738;;;;577472;245;23222;-78
2022/07/21 09:24:29;;;;;;;8.38;4.60;;;57.70;29.80;57.30;100739;;;;577781;244;23171;-78
2022/07/21 09:27:12;;;;;;;4.47;4.12;;;58.10;30.10;57.60;100728;;;;577796;245;23156;-78
2022/07/21 09:29:48;;;;;;;32.63;7.20;;;58.40;29.70;57.30;100717;;;;570266;245;23163;-77
2022/07/21 09:32:40;;;;;;;5.53;4.87;;;58.60;28.90;56.40;100718;;;;577690;245;23177;-79
2022/07/21 09:35:15;;;;;;;8.30;5.20;;;58.10;29.40;56.10;100719;;;;586096;245;23106;-78
2022/07/21 09:37:43;;;;;;;9.45;4.93;;;57.70;29.50;56.20;100724;;;;578128;245;23094;-79
2022/07/21 09:40:12;;;;;;;12.48;4.90;;;57.30;29.70;55.80;100718;;;;577690;245;23159;-77
2022/07/21 09:42:45;;;;;;;7.28;5.28;;;57.30;29.60;55.20;100709;;;;579156;245;23109;-79
2022/07/21 09:45:12;;;;;;;5.82;4.37;;;57.00;29.60;54.80;100720;;;;584948;245;23113;-78
2022/07/21 09:47:40;;;;;;;4.80;4.00;;;56.40;29.90;55.10;100711;;;;585929;242;23116;-78
2022/07/21 09:50:12;;;;;;;12.68;4.47;;;56.40;29.80;54.50;100714;;;;578029;245;23112;-77
2022/07/21 09:52:36;;;;;;;9.48;4.87;;;56.10;29.80;54.00;100710;;;;583531;245;23174;-77
2022/07/21 09:55:05;;;;;;;15.98;5.32;;;55.50;30.60;54.80;100718;;;;578553;245;23286;-76
2022/07/21 09:57:33;;;;;;;10.88;4.85;;;55.80;30.40;55.00;100715;;;;578988;245;23085;-79
2022/07/21 10:00:05;;;;;;;7.50;4.90;;;56.30;29.90;54.30;100704;;;;578725;245;23174;-78
2022/07/21 10:02:33;;;;;;;4.25;3.92;;;55.80;30.20;53.70;100700;;;;587673;245;23177;-77
2022/07/21 10:05:02;;;;;;;7.15;5.00;;;55.20;30.20;53.50;100699;;;;587522;245;23080;-78
2022/07/21 10:07:32;;;;;;;11.10;4.82;;;54.80;30.70;53.30;100699;;;;584366;245;23206;-81
2022/07/21 10:10:01;;;;;;;8.18;4.45;;;54.60;30.50;53.10;100708;;;;584436;245;23160;-79
2022/07/21 10:12:30;;;;;;;7.28;4.78;;;54.50;30.90;52.60;100706;;;;586601;245;23194;-77
2022/07/21 10:14:58;;;;;;;7.72;4.53;;;54.10;30.80;52.00;100699;;;;586498;245;23114;-79
2022/07/21 10:17:28;;;;;;;9.20;4.10;;;53.00;31.10;51.50;100703;;;;586247;245;23124;-78
2022/07/21 10:20:10;;;;;;;9.65;4.30;;;53.00;31.10;50.60;100712;;;;586777;245;23131;-79
2022/07/21 10:23:09;;;;;;;6.03;4.70;;;52.10;32.00;49.70;100709;;;;586656;245;23113;-78
2022/07/21 10:25:36;;;;;;;8.10;4.85;;;51.00;32.70;48.70;100709;;;;569063;245;23132;-77
2022/07/21 10:28:20;;;;;;;4.90;4.50;;;49.80;33.70;48.00;100713;;;;586958;245;23106;-77
2022/07/21 10:30:47;;;;;;;8.00;4.22;;;49.10;34.30;47.30;100706;;;;577906;245;24205;-77
2022/07/21 10:33:14;;;;;;;5.65;5.15;;;48.30;34.80;46.50;100700;;;;577491;245;23133;-77
2022/07/21 10:35:45;;;;;;;8.70;4.35;;;47.50;35.50;46.00;100706;;;;577933;245;23156;-77
2022/07/21 10:38:35;;;;;;;6.12;4.80;;;46.90;36.00;45.50;100701;;;;584465;244;23112;-77
2022/07/21 10:41:02;;;;;;;7.10;4.40;;;46.60;36.20;45.60;100704;;;;577764;245;23104;-82
2022/07/21 10:43:27;;;;;;;6.50;4.07;;;46.40;37.60;45.40;100704;;;;583712;245;23136;-83
2022/07/21 10:45:55;;;;;;;5.22;4.68;;;46.30;36.70;44.40;100696;;;;586237;245;23140;-85
2022/07/21 10:48:42;;;;;;;5.07;4.57;;;45.60;37.30;43.40;100690;;;;584643;245;23088;-83
2022/07/21 10:51:09;;;;;;;4.25;3.87;;;44.50;38.70;42.50;100688;;;;577439;245;23105;-77
2022/07/21 10:53:40;;;;;;;6.03;4.28;;;43.30;39.70;41.70;100684;;;;578525;245;23143;-78
2022/07/21 10:56:05;;;;;;;12.00;4.03;;;41.60;40.90;40.90;100683;;;;582731;245;23127;-81
2022/07/21 10:58:36;;;;;;;7.03;4.37;;;41.40;41.60;40.10;100676;;;;582894;245;23131;-81
2022/07/21 11:01:04;;;;;;;9.07;4.50;;;40.60;42.20;39.20;100678;;;;586557;245;23100;-83
2022/07/21 11:03:34;;;;;;;9.70;4.55;;;39.70;42.60;38.20;100673;;;;577906;245;23108;-81
2022/07/21 11:06:24;;;;;;;5.90;5.40;;;38.80;43.60;37.50;100674;;;;577866;245;23117;-82
2022/07/21 11:08:49;;;;;;;7.40;4.68;;;37.30;47.00;36.80;100672;;;;572389;245;35373;-79
2022/07/21 11:11:18;;;;;;;6.55;4.32;;;36.90;47.20;36.50;100664;;;;583571;245;23134;-77
2022/07/21 11:14:10;;;;;;;7.70;4.57;;;36.80;47.00;36.20;100667;;;;577628;245;24224;-79
2022/07/21 11:16:44;;;;;;;17.02;4.93;;;36.50;47.20;35.80;100668;;;;586961;245;23152;-81
2022/07/21 11:19:42;;;;;;;7.85;4.30;;;36.20;48.10;35.70;100659;;;;578462;245;23109;-79
2022/07/21 11:22:18;;;;;;;6.03;4.37;;;36.00;49.30;35.60;100661;;;;578351;245;23096;-79